Time;durP1;ratioP1;P1;durP2;ratioP2;P2;SDS_P1;SDS_P2;PMS_P1;PMS_P2;Temp;Humidity;BMP_temperature;BMP_pressure;BME280_temperature;BME280_humidity;BME280_pressure;Samples;Min_cycle;Max_cycle;Signal;HPM_P1;HPM_P2
2022/08/08 00:00:48;;;;;;;4.00;2.60;;;24.10;46.00;;;;;;5020862;28;20446;-77
2022/08/08 00:03:26;;;;;;;4.37;2.80;;;24.10;46.30;;;;;;5021318;28;20465;-77
2022/08/08 00:06:08;;;;;;;3.07;2.73;;;24.00;46.30;;;;;;5013675;28;20467;-78
2022/08/08 00:09:00;;;;;;;5.77;2.90;;;24.00;46.30;;;;;;5027234;28;21491;-78
2022/08/08 00:11:42;;;;;;;2.73;2.53;;;24.00;46.30;;;;;;5026894;28;20458;-78
2022/08/08 00:14:26;;;;;;;2.93;2.63;;;24.00;46.40;;;;;;5016309;28;20434;-78
2022/08/08 00:17:04;;;;;;;3.43;2.80;;;23.90;46.50;;;;;;5018959;28;20512;-78
2022/08/08 00:19:41;;;;;;;2.83;2.53;;;23.90;46.60;;;;;;5020634;28;20441;-77
2022/08/08 00:22:16;;;;;;;3.50;3.20;;;23.80;46.60;;;;;;5038249;28;20439;-77
2022/08/08 00:24:48;;;;;;;3.77;2.90;;;23.80;46.80;;;;;;5019493;28;20456;-79
2022/08/08 00:27:18;;;;;;;3.80;2.90;;;23.70;47.50;;;;;;5018447;28;20468;-77
2022/08/08 00:30:04;;;;;;;2.73;2.53;;;23.70;46.90;;;;;;5019102;28;20443;-78
2022/08/08 00:32:34;;;;;;;3.07;2.77;;;23.70;46.90;;;;;;5018312;28;21071;-78
2022/08/08 00:35:10;;;;;;;3.00;2.63;;;23.60;46.80;;;;;;5015368;28;20430;-79
2022/08/08 00:37:46;;;;;;;3.20;2.90;;;23.60;46.90;;;;;;5018206;28;20474;-79
2022/08/08 00:40:27;;;;;;;3.60;2.73;;;23.60;46.90;;;;;;5018996;28;20466;-78
2022/08/08 00:43:42;;;;;;;3.37;3.07;;;23.50;46.90;;;;;;5016717;28;20430;-77
2022/08/08 00:46:29;;;;;;;3.93;2.83;;;23.50;47.10;;;;;;5008127;28;20475;-78
2022/08/08 00:49:28;;;;;;;3.70;2.70;;;23.40;47.50;;;;;;5018164;28;20466;-77
2022/08/08 00:52:12;;;;;;;3.17;2.77;;;23.40;47.60;;;;;;5017305;28;20431;-76
2022/08/08 00:54:40;;;;;;;3.70;3.37;;;23.30;47.50;;;;;;5019138;28;20454;-79
2022/08/08 00:57:44;;;;;;;3.10;2.80;;;23.30;47.50;;;;;;5034093;28;20459;-79
2022/08/08 01:00:16;;;;;;;6.20;3.43;;;23.30;47.60;;;;;;5033165;28;20573;-78
2022/08/08 01:03:11;;;;;;;2.80;2.60;;;23.20;47.80;;;;;;5020420;28;20439;-78
2022/08/08 01:05:42;;;;;;;3.23;2.47;;;23.10;47.60;;;;;;5021480;28;20435;-79
2022/08/08 01:08:30;;;;;;;3.20;2.70;;;23.10;47.60;;;;;;5020146;28;21158;-77
2022/08/08 01:11:15;;;;;;;2.73;2.53;;;23.10;47.70;;;;;;5035009;28;20518;-78
2022/08/08 01:14:18;;;;;;;4.57;2.57;;;23.00;47.80;;;;;;5019620;28;20435;-77
2022/08/08 01:17:13;;;;;;;3.07;2.70;;;22.90;47.90;;;;;;5022321;28;20832;-76
2022/08/08 01:19:57;;;;;;;3.00;2.63;;;22.90;48.00;;;;;;5019180;28;20984;-77
2022/08/08 01:23:01;;;;;;;3.60;3.20;;;22.90;48.10;;;;;;5020997;28;20552;-76
2022/08/08 01:26:01;;;;;;;3.57;3.00;;;22.80;48.40;;;;;;5003657;28;20450;-77
2022/08/08 01:29:28;;;;;;;2.90;2.70;;;22.70;48.50;;;;;;5016529;28;20836;-76
2022/08/08 01:32:31;;;;;;;2.90;2.70;;;22.70;48.60;;;;;;4941506;28;22598;-77
2022/08/08 01:35:11;;;;;;;3.37;2.60;;;22.70;48.60;;;;;;4954418;28;20437;-77
2022/08/08 01:38:28;;;;;;;5.73;3.17;;;22.60;48.60;;;;;;5018768;28;21151;-77
2022/08/08 01:41:16;;;;;;;3.47;3.00;;;22.60;48.90;;;;;;4978439;28;20827;-76
2022/08/08 01:43:59;;;;;;;4.30;2.80;;;22.50;49.10;;;;;;5018726;28;20436;-78
2022/08/08 01:46:51;;;;;;;3.53;3.03;;;22.50;49.50;;;;;;5018272;28;20565;-77
2022/08/08 01:49:25;;;;;;;3.20;2.90;;;22.40;49.60;;;;;;5019196;28;20450;-76
2022/08/08 01:52:19;;;;;;;3.53;2.80;;;22.40;50.00;;;;;;5035266;28;20447;-76
2022/08/08 01:54:55;;;;;;;3.33;3.00;;;22.40;50.30;;;;;;5005556;28;20436;-79
2022/08/08 01:58:03;;;;;;;2.90;2.70;;;22.40;50.60;;;;;;5022836;28;20512;-78
2022/08/08 02:00:44;;;;;;;3.77;3.00;;;22.30;50.80;;;;;;5035085;28;20522;-79
2022/08/08 02:03:20;;;;;;;3.00;2.70;;;22.30;50.90;;;;;;5020598;28;20806;-78
2022/08/08 02:06:20;;;;;;;2.80;2.60;;;22.30;51.00;;;;;;5020020;28;20461;-78
2022/08/08 02:08:58;;;;;;;7.50;2.80;;;22.20;51.40;;;;;;5018597;28;20435;-78
2022/08/08 02:11:30;;;;;;;2.87;2.60;;;22.20;51.70;;;;;;5022541;28;20438;-77
2022/08/08 02:14:05;;;;;;;3.20;2.90;;;22.20;51.90;;;;;;5018245;28;20521;-77
2022/08/08 02:16:50;;;;;;;3.10;2.53;;;22.10;52.10;;;;;;5020922;28;20458;-78
2022/08/08 02:19:26;;;;;;;3.83;2.73;;;22.10;52.20;;;;;;5015898;28;20437;-78
2022/08/08 02:25:11;;;;;;;3.20;2.80;;;22.10;52.50;;;;;;5016829;28;20589;-78
2022/08/08 02:28:00;;;;;;;3.30;2.70;;;22.00;52.20;;;;;;5018551;28;20478;-78
2022/08/08 02:30:43;;;;;;;2.60;2.40;;;22.00;52.00;;;;;;5014452;28;21139;-78
2022/08/08 02:33:28;;;;;;;3.87;2.33;;;22.00;51.90;;;;;;5021920;28;20459;-79
2022/08/08 02:36:11;;;;;;;4.10;2.70;;;22.00;51.90;;;;;;5011865;28;20431;-79
2022/08/08 02:39:07;;;;;;;3.00;2.70;;;21.90;51.70;;;;;;5034779;28;20423;-80
2022/08/08 02:42:08;;;;;;;3.17;2.87;;;21.90;51.70;;;;;;5015070;28;20420;-79
2022/08/08 02:44:58;;;;;;;3.30;2.70;;;21.90;51.60;;;;;;5018773;28;20438;-78
2022/08/08 02:48:04;;;;;;;2.97;2.67;;;21.80;51.50;;;;;;5019383;28;21025;-78
2022/08/08 02:51:08;;;;;;;2.90;2.70;;;21.80;51.50;;;;;;5018446;28;20431;-79
2022/08/08 02:54:18;;;;;;;2.90;2.70;;;21.70;51.50;;;;;;5017152;28;20524;-78
2022/08/08 02:57:13;;;;;;;2.80;2.60;;;21.60;51.50;;;;;;5017479;28;20546;-78
2022/08/08 02:59:58;;;;;;;2.40;2.20;;;21.60;51.50;;;;;;5016565;28;21149;-78
2022/08/08 03:03:01;;;;;;;7.13;3.83;;;21.50;51.40;;;;;;5019961;28;20514;-77
2022/08/08 03:05:54;;;;;;;5.17;2.73;;;21.50;51.50;;;;;;5011212;28;20470;-79
2022/08/08 03:08:23;;;;;;;4.20;2.80;;;21.50;51.50;;;;;;5018529;28;22072;-77
2022/08/08 03:11:10;;;;;;;4.27;2.90;;;21.50;51.50;;;;;;5013315;28;20530;-78
2022/08/08 03:14:11;;;;;;;2.97;2.70;;;21.40;51.40;;;;;;5020535;28;20439;-79
2022/08/08 03:16:57;;;;;;;3.67;2.70;;;21.40;51.40;;;;;;5014305;28;21149;-79
2022/08/08 03:20:10;;;;;;;2.80;2.60;;;21.30;51.40;;;;;;5001313;28;20446;-78
2022/08/08 03:22:51;;;;;;;3.80;3.33;;;21.30;51.40;;;;;;5016495;28;20442;-78
2022/08/08 03:25:20;;;;;;;3.00;2.70;;;21.20;51.30;;;;;;5016616;28;20842;-78
2022/08/08 03:27:52;;;;;;;4.20;2.90;;;21.20;51.50;;;;;;5017073;28;20473;-81
2022/08/08 03:30:19;;;;;;;2.63;2.40;;;21.20;51.50;;;;;;5015402;28;21029;-79
2022/08/08 03:35:35;;;;;;;4.27;2.73;;;21.10;51.60;;;;;;5014111;28;20907;-79
2022/08/08 03:38:01;;;;;;;3.10;2.80;;;21.10;51.70;;;;;;5020871;28;20492;-80
2022/08/08 03:40:27;;;;;;;3.27;2.90;;;21.00;51.80;;;;;;5022725;28;20479;-78
2022/08/08 03:42:53;;;;;;;3.30;2.80;;;21.00;51.90;;;;;;5017788;28;20185;-79
2022/08/08 03:45:21;;;;;;;2.70;2.50;;;21.00;52.10;;;;;;5015662;28;20227;-80
2022/08/08 03:48:06;;;;;;;3.10;2.80;;;20.90;52.20;;;;;;5020746;28;20219;-77
2022/08/08 03:50:34;;;;;;;2.60;2.40;;;20.90;52.40;;;;;;5018695;28;20471;-78
2022/08/08 03:53:09;;;;;;;3.20;2.60;;;20.80;52.30;;;;;;5018308;28;20465;-80
2022/08/08 03:55:38;;;;;;;2.90;2.60;;;20.80;52.40;;;;;;5023202;28;20832;-78
2022/08/08 03:58:04;;;;;;;2.70;2.50;;;20.80;52.50;;;;;;5023023;28;20455;-80
2022/08/08 04:00:30;;;;;;;4.20;2.87;;;20.80;52.50;;;;;;5018961;28;20427;-79
2022/08/08 04:03:05;;;;;;;4.13;3.03;;;20.80;52.60;;;;;;5022971;28;20188;-79
2022/08/08 04:05:33;;;;;;;3.37;3.07;;;20.80;52.70;;;;;;5020984;28;20188;-81
2022/08/08 04:08:01;;;;;;;3.47;2.53;;;20.70;52.80;;;;;;5022313;28;20462;-80
2022/08/08 04:10:28;;;;;;;4.40;3.10;;;20.70;53.00;;;;;;5018703;28;20498;-78
2022/08/08 04:12:54;;;;;;;3.20;2.90;;;20.70;53.00;;;;;;5020878;28;20430;-80
2022/08/08 04:15:20;;;;;;;6.93;2.80;;;20.70;53.20;;;;;;5021122;28;20525;-78
2022/08/08 04:17:46;;;;;;;3.90;2.80;;;20.70;53.40;;;;;;5024431;28;20904;-80
2022/08/08 04:20:12;;;;;;;6.00;2.90;;;20.70;53.50;;;;;;5021900;28;20504;-80
2022/08/08 04:22:37;;;;;;;3.47;3.17;;;20.70;53.50;;;;;;5023781;28;20206;-77
2022/08/08 04:25:05;;;;;;;3.30;3.00;;;20.70;53.50;;;;;;5022039;28;20928;-77
2022/08/08 04:27:32;;;;;;;4.73;3.17;;;20.70;53.60;;;;;;5018825;28;20212;-78
2022/08/08 04:29:58;;;;;;;3.00;2.80;;;20.70;53.70;;;;;;5020320;28;20534;-79
2022/08/08 04:32:23;;;;;;;3.10;2.80;;;20.70;53.80;;;;;;5023169;28;21108;-78
2022/08/08 04:34:49;;;;;;;3.83;3.30;;;20.70;53.80;;;;;;5019751;28;20185;-78
2022/08/08 04:37:15;;;;;;;3.30;3.00;;;20.70;53.80;;;;;;5023607;28;20215;-79
2022/08/08 04:39:41;;;;;;;4.07;3.07;;;20.60;54.20;;;;;;5022329;28;20239;-78
2022/08/08 04:42:07;;;;;;;3.40;3.10;;;20.60;54.50;;;;;;5021812;28;20423;-77
2022/08/08 04:44:33;;;;;;;3.13;2.93;;;20.60;53.90;;;;;;5018638;28;20187;-78
2022/08/08 04:46:59;;;;;;;3.63;2.93;;;20.60;54.00;;;;;;5018545;28;20471;-78
2022/08/08 04:49:24;;;;;;;3.50;3.20;;;20.60;54.10;;;;;;5024231;28;20221;-78
2022/08/08 04:51:50;;;;;;;3.90;2.90;;;20.60;54.00;;;;;;5020875;28;20180;-78
2022/08/08 04:54:16;;;;;;;3.00;2.80;;;20.60;54.00;;;;;;5020455;28;20191;-79
2022/08/08 04:56:41;;;;;;;3.73;2.83;;;20.60;54.00;;;;;;5016722;28;20211;-78
2022/08/08 04:59:07;;;;;;;4.00;3.03;;;20.60;54.20;;;;;;5018216;28;21314;-80
2022/08/08 05:01:33;;;;;;;3.77;2.63;;;20.60;54.00;;;;;;5019533;28;20188;-80
2022/08/08 05:03:58;;;;;;;4.27;2.90;;;20.60;54.00;;;;;;5018005;28;20320;-79
2022/08/08 05:06:24;;;;;;;3.40;3.10;;;20.60;53.90;;;;;;5018648;28;21137;-78
2022/08/08 05:08:50;;;;;;;4.03;3.00;;;20.60;53.90;;;;;;5017348;28;20271;-79
2022/08/08 05:11:16;;;;;;;2.90;2.53;;;20.60;53.80;;;;;;5019668;28;20185;-79
2022/08/08 05:13:42;;;;;;;4.90;3.30;;;20.60;53.80;;;;;;5019587;28;20447;-80
2022/08/08 05:16:09;;;;;;;4.80;4.17;;;20.60;53.90;;;;;;5018247;28;20318;-79
2022/08/08 05:18:35;;;;;;;3.23;2.93;;;20.70;54.00;;;;;;5017203;28;20430;-79
2022/08/08 05:21:03;;;;;;;3.30;3.00;;;20.60;53.80;;;;;;5016816;28;21083;-80
2022/08/08 05:23:29;;;;;;;3.30;2.60;;;20.60;54.00;;;;;;5032370;28;20431;-78
2022/08/08 05:25:55;;;;;;;4.63;2.93;;;20.60;53.90;;;;;;5016053;28;20509;-80
2022/08/08 05:28:21;;;;;;;4.13;2.77;;;20.60;53.70;;;;;;5016056;28;20427;-78
2022/08/08 05:30:47;;;;;;;7.23;3.20;;;20.70;53.80;;;;;;5016647;28;20431;-78
2022/08/08 05:33:13;;;;;;;4.60;2.83;;;20.60;53.80;;;;;;5022106;28;20427;-79
2022/08/08 05:35:42;;;;;;;4.80;3.20;;;20.60;53.90;;;;;;5018931;28;20453;-79
2022/08/08 05:38:15;;;;;;;4.03;3.50;;;20.70;54.10;;;;;;5022653;28;20223;-79
2022/08/08 05:40:45;;;;;;;5.00;2.90;;;20.70;53.90;;;;;;5021144;28;20986;-81
2022/08/08 05:43:24;;;;;;;3.50;3.20;;;20.70;54.00;;;;;;5023527;28;20442;-79
2022/08/08 05:45:54;;;;;;;3.67;3.30;;;20.70;54.10;;;;;;5011561;28;20430;-79
2022/08/08 05:48:19;;;;;;;3.60;2.90;;;20.70;54.00;;;;;;5023878;28;20436;-80
2022/08/08 05:50:45;;;;;;;3.50;2.90;;;20.70;54.00;;;;;;5020158;28;20436;-77
2022/08/08 05:53:11;;;;;;;4.83;3.00;;;20.70;54.00;;;;;;5022621;28;20192;-80
2022/08/08 05:55:42;;;;;;;5.43;2.93;;;20.80;54.20;;;;;;5025674;28;20181;-80
2022/08/08 05:58:11;;;;;;;5.80;3.13;;;20.80;54.30;;;;;;5023503;28;20219;-79
2022/08/08 06:00:38;;;;;;;3.03;2.73;;;20.80;54.50;;;;;;5026456;28;20462;-79
2022/08/08 06:03:12;;;;;;;7.53;3.10;;;20.80;54.50;;;;;;5023580;28;20554;-80
2022/08/08 06:05:59;;;;;;;4.47;3.17;;;20.80;54.50;;;;;;5026599;28;20898;-80
2022/08/08 06:08:30;;;;;;;5.30;3.57;;;20.80;54.50;;;;;;5020569;28;20443;-80
2022/08/08 06:10:57;;;;;;;5.03;3.30;;;20.80;54.60;;;;;;5022260;28;20519;-79
2022/08/08 06:13:23;;;;;;;5.23;2.87;;;20.90;54.80;;;;;;5022836;28;20480;-79
2022/08/08 06:15:51;;;;;;;4.23;2.90;;;20.90;54.80;;;;;;5023545;28;20471;-79
2022/08/08 06:18:17;;;;;;;4.40;3.20;;;20.90;54.90;;;;;;5019140;28;20454;-79
2022/08/08 06:20:44;;;;;;;6.53;3.87;;;20.90;55.00;;;;;;5021104;28;20531;-79
2022/08/08 06:23:11;;;;;;;35.27;5.90;;;21.00;55.10;;;;;;5017019;28;20497;-80
2022/08/08 06:25:41;;;;;;;3.33;3.03;;;21.00;55.00;;;;;;5021387;28;20910;-80
2022/08/08 06:28:29;;;;;;;4.60;3.13;;;21.00;55.00;;;;;;5024147;28;20459;-80
2022/08/08 06:30:59;;;;;;;5.17;3.00;;;21.00;54.90;;;;;;5018899;28;20533;-80
2022/08/08 06:33:33;;;;;;;4.63;3.27;;;21.00;54.90;;;;;;5024358;28;21350;-80
2022/08/08 06:36:01;;;;;;;4.23;3.17;;;21.10;54.90;;;;;;5028268;28;20495;-79
2022/08/08 06:38:31;;;;;;;4.77;3.30;;;21.20;54.50;;;;;;5024572;28;20442;-80
2022/08/08 06:41:06;;;;;;;4.47;3.50;;;21.20;54.40;;;;;;5020997;28;20532;-80
2022/08/08 06:43:37;;;;;;;5.83;3.23;;;21.20;54.10;;;;;;5022533;28;20768;-79
2022/08/08 06:46:05;;;;;;;4.17;3.77;;;21.30;54.00;;;;;;5016467;28;20467;-80
2022/08/08 06:48:31;;;;;;;4.77;2.80;;;21.30;53.80;;;;;;5018219;28;20861;-80
2022/08/08 06:50:58;;;;;;;3.10;2.90;;;21.30;53.60;;;;;;5019307;28;20470;-80
2022/08/08 06:53:26;;;;;;;2.97;2.77;;;21.40;53.60;;;;;;5017835;28;20488;-79
2022/08/08 06:55:52;;;;;;;3.50;3.03;;;21.40;53.40;;;;;;5019389;28;20937;-78
2022/08/08 06:58:18;;;;;;;4.03;2.90;;;21.50;53.30;;;;;;5016027;28;20439;-81
2022/08/08 07:00:46;;;;;;;3.20;2.90;;;21.50;53.00;;;;;;5021869;28;21232;-78
2022/08/08 07:03:25;;;;;;;3.27;2.93;;;21.50;52.80;;;;;;5018627;28;20987;-79
2022/08/08 07:05:54;;;;;;;5.27;3.20;;;21.60;52.80;;;;;;5018002;28;20439;-78
2022/08/08 07:08:32;;;;;;;3.13;2.83;;;21.60;52.80;;;;;;5018905;28;20762;-80
2022/08/08 07:11:01;;;;;;;3.57;2.93;;;21.70;52.90;;;;;;5020945;28;20457;-81
2022/08/08 07:13:37;;;;;;;9.10;3.20;;;21.70;52.80;;;;;;5024331;28;20431;-80
2022/08/08 07:16:08;;;;;;;3.00;2.80;;;21.80;52.80;;;;;;5022831;28;21019;-81
2022/08/08 07:18:52;;;;;;;8.90;4.00;;;21.90;52.70;;;;;;5021483;28;21011;-80
2022/08/08 07:21:22;;;;;;;4.67;2.90;;;22.00;52.70;;;;;;5022369;28;20435;-78
2022/08/08 07:24:23;;;;;;;4.57;3.00;;;22.10;52.60;;;;;;5019777;28;20450;-80
2022/08/08 07:26:52;;;;;;;3.73;3.03;;;22.10;52.30;;;;;;5007061;28;20935;-79
2022/08/08 07:29:18;;;;;;;9.40;2.80;;;22.20;52.20;;;;;;5014187;28;20479;-81
2022/08/08 07:31:45;;;;;;;7.80;2.83;;;22.20;51.80;;;;;;5021983;28;20439;-79
2022/08/08 07:34:12;;;;;;;3.93;2.67;;;22.30;51.60;;;;;;5022475;28;20482;-80
2022/08/08 07:36:39;;;;;;;3.30;3.00;;;22.40;51.50;;;;;;5022896;28;21205;-79
2022/08/08 07:39:07;;;;;;;4.77;2.70;;;22.40;51.40;;;;;;5022206;28;20449;-79
2022/08/08 07:41:36;;;;;;;4.60;2.60;;;22.50;51.10;;;;;;5026287;28;20850;-79
2022/08/08 07:44:04;;;;;;;5.97;3.20;;;22.50;51.20;;;;;;5019692;28;20453;-80
2022/08/08 07:46:30;;;;;;;3.10;2.60;;;22.60;50.80;;;;;;5021680;28;20482;-79
2022/08/08 07:48:56;;;;;;;4.00;3.07;;;22.60;50.90;;;;;;5015918;28;20436;-80
2022/08/08 07:51:23;;;;;;;6.70;3.00;;;22.60;51.00;;;;;;5020038;28;21022;-80
2022/08/08 07:54:35;;;;;;;5.70;2.80;;;22.70;50.70;;;;;;5018407;28;20184;-81
2022/08/08 07:57:25;;;;;;;3.90;3.20;;;22.70;50.70;;;;;;5005284;28;20608;-81
2022/08/08 07:59:53;;;;;;;10.43;3.40;;;22.80;50.60;;;;;;5019984;28;21453;-80
2022/08/08 08:02:22;;;;;;;3.33;3.03;;;22.90;50.60;;;;;;5019131;28;20466;-80
2022/08/08 08:04:55;;;;;;;4.93;2.63;;;22.90;50.50;;;;;;5020915;28;20443;-81
2022/08/08 08:07:25;;;;;;;7.80;2.70;;;23.00;50.60;;;;;;5019592;28;20471;-79
2022/08/08 08:09:50;;;;;;;3.90;2.83;;;23.10;50.80;;;;;;5020630;28;20436;-80
2022/08/08 08:12:19;;;;;;;3.20;3.00;;;23.10;50.50;;;;;;5017551;28;20489;-80
2022/08/08 08:15:01;;;;;;;4.10;2.93;;;23.20;50.40;;;;;;5022171;28;20292;-80
2022/08/08 08:17:28;;;;;;;4.63;2.63;;;23.30;50.40;;;;;;5016905;28;20597;-80
2022/08/08 08:19:58;;;;;;;3.40;2.93;;;23.30;50.40;;;;;;5019420;28;20454;-80
2022/08/08 08:22:23;;;;;;;3.60;3.00;;;23.40;50.20;;;;;;5018951;28;20454;-80
2022/08/08 08:24:49;;;;;;;3.13;2.70;;;23.50;50.30;;;;;;5020236;28;20443;-79
2022/08/08 08:27:15;;;;;;;4.40;3.63;;;23.60;50.50;;;;;;5024538;28;20284;-78
2022/08/08 08:29:41;;;;;;;3.40;2.90;;;23.70;50.60;;;;;;5042124;28;20196;-80
2022/08/08 08:32:07;;;;;;;3.30;3.10;;;23.70;50.40;;;;;;5023108;28;20282;-79
2022/08/08 08:34:33;;;;;;;3.47;3.17;;;23.80;50.50;;;;;;5019091;28;20180;-78
2022/08/08 08:36:59;;;;;;;3.37;3.07;;;23.80;50.30;;;;;;5020151;28;20204;-79
2022/08/08 08:39:25;;;;;;;3.83;3.10;;;23.90;50.40;;;;;;5025483;28;20456;-78
2022/08/08 08:41:51;;;;;;;3.70;3.13;;;24.00;50.40;;;;;;5020734;28;20435;-76
2022/08/08 08:44:18;;;;;;;4.10;3.00;;;23.90;50.40;;;;;;5020606;28;20200;-77
2022/08/08 08:46:44;;;;;;;3.00;2.80;;;24.00;50.40;;;;;;5017041;28;20541;-77
2022/08/08 08:49:10;;;;;;;3.77;3.13;;;24.10;50.50;;;;;;5018704;28;20446;-77
2022/08/08 08:51:40;;;;;;;3.87;2.70;;;24.20;50.50;;;;;;5017462;28;20451;-76
2022/08/08 08:54:07;;;;;;;4.57;3.03;;;24.30;50.50;;;;;;5018474;28;20235;-76
2022/08/08 08:56:35;;;;;;;3.00;2.70;;;24.40;50.70;;;;;;5020302;28;20577;-76
2022/08/08 08:59:03;;;;;;;16.93;3.43;;;24.40;50.60;;;;;;5020059;28;20561;-76
2022/08/08 09:01:33;;;;;;;3.70;3.40;;;24.50;50.70;;;;;;5023802;28;20440;-78
2022/08/08 09:04:06;;;;;;;3.70;3.40;;;24.60;50.60;;;;;;5028587;28;20440;-77
2022/08/08 09:06:38;;;;;;;3.87;3.43;;;24.70;50.60;;;;;;5024076;28;20505;-77
2022/08/08 09:09:15;;;;;;;3.40;3.10;;;24.70;50.60;;;;;;5015888;28;20438;-76
2022/08/08 09:11:44;;;;;;;5.00;3.60;;;24.80;51.00;;;;;;5019713;28;20485;-76
2022/08/08 09:14:10;;;;;;;3.43;3.13;;;24.90;50.90;;;;;;5015098;28;20432;-76
2022/08/08 09:16:37;;;;;;;3.60;3.30;;;24.90;50.90;;;;;;5017147;28;20459;-76
2022/08/08 09:19:04;;;;;;;6.43;3.40;;;25.00;51.00;;;;;;5015309;28;20534;-76
2022/08/08 09:21:30;;;;;;;4.23;3.83;;;25.10;50.70;;;;;;5014781;28;21882;-76
2022/08/08 09:23:57;;;;;;;6.93;3.20;;;25.20;50.20;;;;;;5022816;28;20442;-76
2022/08/08 09:26:28;;;;;;;4.80;3.20;;;25.30;50.70;;;;;;5017554;28;20485;-74
2022/08/08 09:28:58;;;;;;;4.93;3.43;;;25.30;51.00;;;;;;5016591;28;20454;-74
2022/08/08 09:31:37;;;;;;;8.10;3.87;;;25.50;50.90;;;;;;5023954;28;20497;-75
2022/08/08 09:34:04;;;;;;;4.53;3.90;;;25.60;51.00;;;;;;5022430;28;20439;-75
2022/08/08 09:36:34;;;;;;;5.20;3.10;;;25.60;50.70;;;;;;5020451;28;20466;-74
2022/08/08 09:39:02;;;;;;;5.80;3.53;;;25.70;50.60;;;;;;5022034;28;20508;-76
2022/08/08 09:41:38;;;;;;;3.93;3.53;;;25.70;50.60;;;;;;5014658;28;20450;-75
2022/08/08 09:44:18;;;;;;;4.50;3.83;;;25.80;50.90;;;;;;5011819;28;20443;-75
2022/08/08 09:46:49;;;;;;;5.60;3.83;;;25.90;51.00;;;;;;5018792;28;20470;-74
2022/08/08 09:49:19;;;;;;;6.90;3.50;;;25.90;50.70;;;;;;5016199;28;20446;-75
2022/08/08 09:51:52;;;;;;;4.37;3.57;;;26.00;50.60;;;;;;5020040;28;20466;-75
2022/08/08 09:54:21;;;;;;;3.57;3.27;;;26.00;50.80;;;;;;5017133;28;21186;-75
2022/08/08 09:56:54;;;;;;;3.40;3.20;;;26.10;50.80;;;;;;5016023;28;20899;-75
2022/08/08 09:59:25;;;;;;;3.40;3.20;;;26.20;50.90;;;;;;5018063;28;20427;-76
2022/08/08 10:01:52;;;;;;;3.80;3.50;;;26.20;50.80;;;;;;5019038;28;20501;-75
2022/08/08 10:04:21;;;;;;;3.67;3.30;;;26.30;50.40;;;;;;5021581;28;20454;-75
2022/08/08 10:06:47;;;;;;;4.53;3.50;;;26.40;50.60;;;;;;5020810;28;20942;-75
2022/08/08 10:09:13;;;;;;;3.93;3.27;;;26.50;50.60;;;;;;5023508;28;20437;-74
2022/08/08 10:11:46;;;;;;;3.67;3.20;;;26.50;50.60;;;;;;5020116;28;21557;-77
2022/08/08 10:14:12;;;;;;;3.60;3.30;;;26.60;50.50;;;;;;5019114;28;20185;-76
2022/08/08 10:16:40;;;;;;;3.33;3.03;;;26.70;50.30;;;;;;5020231;28;20459;-75
2022/08/08 10:19:08;;;;;;;3.53;3.23;;;26.80;49.60;;;;;;5020670;28;20438;-77
2022/08/08 10:21:35;;;;;;;3.23;3.03;;;26.90;49.60;;;;;;5018486;28;20530;-76
2022/08/08 10:24:08;;;;;;;6.13;3.40;;;27.00;49.50;;;;;;5018904;28;20488;-76
2022/08/08 10:26:43;;;;;;;3.70;3.40;;;27.00;49.40;;;;;;5019449;28;20508;-76
2022/08/08 10:29:11;;;;;;;3.90;3.50;;;27.00;49.20;;;;;;5017406;28;20444;-74
2022/08/08 10:34:25;;;;;;;3.90;3.60;;;27.20;48.30;;;;;;5017568;28;21135;-76
2022/08/08 10:36:52;;;;;;;4.67;3.30;;;27.30;48.50;;;;;;5014462;28;20513;-76
2022/08/08 10:39:19;;;;;;;4.70;3.40;;;27.30;48.50;;;;;;5014783;28;20953;-75
2022/08/08 10:41:55;;;;;;;5.53;3.70;;;27.40;48.50;;;;;;5011967;28;20455;-75
2022/08/08 10:44:37;;;;;;;3.57;3.23;;;27.40;48.20;;;;;;5018383;28;20523;-75
2022/08/08 10:47:16;;;;;;;3.53;3.23;;;27.50;47.40;;;;;;5017388;28;20497;-76
2022/08/08 10:49:49;;;;;;;3.37;3.07;;;27.50;46.80;;;;;;5017568;28;20525;-75
2022/08/08 10:52:22;;;;;;;7.23;3.60;;;27.60;46.60;;;;;;5013777;28;20439;-75
2022/08/08 10:54:53;;;;;;;3.03;2.83;;;27.70;46.40;;;;;;5012666;28;20805;-76
2022/08/08 10:57:18;;;;;;;6.53;3.30;;;27.70;46.40;;;;;;5015858;28;20461;-76
2022/08/08 10:59:54;;;;;;;3.10;2.90;;;27.70;46.50;;;;;;5015313;28;20440;-76
2022/08/08 11:02:29;;;;;;;2.97;2.77;;;27.80;46.60;;;;;;5013246;28;20187;-75
2022/08/08 11:05:00;;;;;;;4.07;3.10;;;27.90;46.50;;;;;;5015809;28;20841;-76
2022/08/08 11:07:34;;;;;;;3.60;3.30;;;27.90;45.30;;;;;;5009924;28;20546;-76
2022/08/08 11:10:04;;;;;;;3.63;3.27;;;28.00;45.20;;;;;;5015203;28;20489;-75
2022/08/08 11:12:33;;;;;;;3.40;3.10;;;28.10;45.00;;;;;;5015306;28;20432;-76
2022/08/08 11:15:00;;;;;;;3.57;3.27;;;28.10;45.00;;;;;;5015342;28;20470;-75
2022/08/08 11:17:28;;;;;;;3.60;3.30;;;28.20;45.00;;;;;;5015195;28;20499;-76
2022/08/08 11:19:54;;;;;;;3.23;2.93;;;28.30;45.20;;;;;;5016859;28;20539;-76
2022/08/08 11:22:30;;;;;;;4.30;3.20;;;28.40;44.60;;;;;;5015269;28;20438;-76
2022/08/08 11:25:00;;;;;;;3.70;3.33;;;28.50;44.60;;;;;;5013743;28;20439;-76
2022/08/08 11:27:31;;;;;;;3.80;3.50;;;28.50;44.50;;;;;;5017291;28;20524;-76
2022/08/08 11:29:59;;;;;;;4.30;3.40;;;28.60;44.50;;;;;;5009815;28;20601;-77
2022/08/08 11:32:26;;;;;;;3.67;3.37;;;28.70;44.70;;;;;;5012178;28;20446;-77
2022/08/08 11:35:04;;;;;;;4.00;3.70;;;28.80;44.30;;;;;;5014014;28;20647;-76
2022/08/08 11:37:32;;;;;;;4.10;3.70;;;28.90;44.60;;;;;;5014475;28;20701;-76
2022/08/08 11:40:00;;;;;;;4.93;3.53;;;29.00;44.50;;;;;;5013245;28;20501;-77
2022/08/08 11:42:27;;;;;;;3.60;3.07;;;29.10;44.40;;;;;;5017094;28;20521;-76
2022/08/08 11:44:54;;;;;;;3.80;3.33;;;29.20;43.90;;;;;;5016252;28;20493;-76
2022/08/08 11:47:24;;;;;;;3.10;2.80;;;29.30;43.50;;;;;;5014410;28;20502;-76
2022/08/08 11:49:56;;;;;;;3.83;3.17;;;29.40;43.80;;;;;;5031199;28;20439;-76
2022/08/08 11:52:24;;;;;;;4.67;3.17;;;29.60;43.40;;;;;;5014428;28;21431;-76
2022/08/08 11:54:50;;;;;;;4.77;3.40;;;29.70;42.20;;;;;;5014372;28;20427;-76
2022/08/08 11:57:16;;;;;;;3.23;3.03;;;29.80;41.50;;;;;;5013652;28;20470;-76
2022/08/08 11:59:51;;;;;;;3.63;2.90;;;29.80;41.40;;;;;;5017552;28;20443;-76
2022/08/08 12:02:16;;;;;;;3.37;2.70;;;30.00;41.70;;;;;;5019826;28;20679;-77
2022/08/08 12:04:42;;;;;;;3.07;2.83;;;30.20;41.30;;;;;;5019738;28;20422;-77
2022/08/08 12:07:08;;;;;;;5.13;3.50;;;30.30;40.90;;;;;;5020573;28;20255;-76
2022/08/08 12:09:34;;;;;;;4.63;3.17;;;30.60;40.10;;;;;;5017230;28;20231;-76
2022/08/08 12:12:00;;;;;;;3.30;3.00;;;31.00;40.10;;;;;;5017766;28;20439;-77
2022/08/08 12:14:26;;;;;;;3.00;2.80;;;31.40;39.60;;;;;;5017021;28;21124;-76
2022/08/08 12:16:53;;;;;;;6.40;3.43;;;31.80;39.00;;;;;;5016704;28;20422;-76
2022/08/08 12:19:24;;;;;;;6.00;3.33;;;32.30;38.80;;;;;;5019293;28;20196;-75
2022/08/08 12:21:50;;;;;;;3.53;3.23;;;32.70;38.10;;;;;;5016738;28;21237;-76
2022/08/08 12:24:20;;;;;;;6.30;2.90;;;33.00;37.20;;;;;;5017109;28;20489;-76
2022/08/08 12:26:50;;;;;;;3.33;3.03;;;33.20;37.40;;;;;;5017320;28;20212;-76
2022/08/08 12:29:31;;;;;;;2.93;2.73;;;33.50;37.00;;;;;;5017327;28;20456;-76
2022/08/08 12:32:01;;;;;;;3.47;2.90;;;33.70;36.40;;;;;;5018284;28;21435;-76
2022/08/08 12:34:34;;;;;;;5.53;3.00;;;34.00;36.10;;;;;;5017495;28;20447;-77
2022/08/08 12:37:06;;;;;;;3.00;2.80;;;34.30;35.90;;;;;;5020772;28;21369;-76
2022/08/08 12:39:32;;;;;;;2.80;2.60;;;34.30;34.80;;;;;;5017149;28;20472;-76
2022/08/08 12:41:59;;;;;;;7.20;3.10;;;34.40;35.30;;;;;;5018651;28;20423;-76
2022/08/08 12:44:27;;;;;;;3.23;3.03;;;34.60;35.00;;;;;;5017404;28;20192;-76
2022/08/08 12:46:55;;;;;;;3.30;3.00;;;34.70;34.80;;;;;;5018993;28;21234;-76
2022/08/08 12:49:27;;;;;;;2.80;2.60;;;34.80;34.70;;;;;;5019767;28;20431;-75
2022/08/08 12:51:52;;;;;;;3.10;2.90;;;34.90;34.70;;;;;;5018916;28;20422;-75
2022/08/08 12:54:24;;;;;;;2.73;2.53;;;35.10;34.80;;;;;;5018980;28;20501;-76
2022/08/08 12:56:50;;;;;;;2.80;2.60;;;35.20;33.60;;;;;;5017395;28;20204;-77
2022/08/08 12:59:27;;;;;;;3.50;3.20;;;35.30;33.50;;;;;;5017649;28;20443;-77
2022/08/08 13:01:58;;;;;;;3.13;2.90;;;35.40;33.40;;;;;;5018094;28;20832;-76
2022/08/08 13:04:33;;;;;;;3.90;3.60;;;35.60;33.70;;;;;;5015038;28;21126;-76
2022/08/08 13:07:04;;;;;;;3.27;2.83;;;35.60;33.50;;;;;;5019271;28;20442;-76
2022/08/08 13:09:37;;;;;;;2.87;2.60;;;35.70;32.60;;;;;;5015546;28;20399;-77
2022/08/08 13:12:28;;;;;;;3.20;2.97;;;35.90;32.80;;;;;;5020872;28;20488;-77
2022/08/08 13:14:55;;;;;;;4.00;3.03;;;35.90;32.50;;;;;;5016849;28;20443;-77
2022/08/08 13:17:26;;;;;;;3.03;2.80;;;35.80;32.30;;;;;;5015963;28;20437;-76
2022/08/08 13:19:55;;;;;;;3.37;2.87;;;35.90;31.30;;;;;;5014954;28;20435;-79
2022/08/08 13:22:22;;;;;;;3.67;2.90;;;35.90;31.80;;;;;;5014293;28;20537;-76
2022/08/08 13:24:48;;;;;;;2.70;2.50;;;36.00;32.00;;;;;;5016637;28;20435;-76
2022/08/08 13:27:18;;;;;;;3.23;2.80;;;36.10;32.00;;;;;;5013931;28;20468;-73